createdAt,value
2019-05-26T00:02:11.046Z,26.27
2019-05-26T00:04:37.314Z,25.73
2019-05-26T00:07:04.135Z,26.73
2019-05-26T00:09:30.413Z,24.63
2019-05-26T00:11:56.683Z,29.37
2019-05-26T00:14:23.126Z,26.17
2019-05-26T00:16:49.302Z,26.23
2019-05-26T00:19:15.483Z,25.93
2019-05-26T00:21:41.690Z,31.10
2019-05-26T00:24:07.866Z,29.13
2019-05-26T00:26:34.037Z,26.63
2019-05-26T00:29:00.238Z,31.50
2019-05-26T00:31:26.426Z,29.20
2019-05-26T00:33:52.614Z,30.37
2019-05-26T00:36:18.823Z,33.93
2019-05-26T00:38:44.998Z,27.80
2019-05-26T00:41:11.166Z,33.07
2019-05-26T00:43:37.358Z,30.17
2019-05-26T00:46:04.932Z,30.30
2019-05-26T00:48:31.115Z,34.30
2019-05-26T00:50:57.334Z,33.87
2019-05-26T00:53:23.806Z,30.07
2019-05-26T00:55:49.974Z,32.37
2019-05-26T00:58:16.203Z,31.00
2019-05-26T01:00:42.887Z,33.43
2019-05-26T01:03:09.754Z,34.50
2019-05-26T01:05:36.274Z,28.90
2019-05-26T01:08:06.658Z,34.40
2019-05-26T01:10:32.535Z,34.20
2019-05-26T01:12:58.742Z,32.20
2019-05-26T01:15:25.015Z,33.93
2019-05-26T01:17:51.178Z,33.87
2019-05-26T01:20:17.538Z,33.17
2019-05-26T01:22:43.770Z,37.83
2019-05-26T01:25:10.350Z,33.27
2019-05-26T01:27:36.556Z,36.00
2019-05-26T01:30:06.243Z,36.40
2019-05-26T01:32:32.421Z,32.33
2019-05-26T01:34:58.627Z,37.63
2019-05-26T01:37:24.798Z,34.33
2019-05-26T01:39:50.976Z,36.23
2019-05-26T01:42:17.378Z,33.73
2019-05-26T01:44:43.559Z,34.10
2019-05-26T01:47:10.038Z,36.23
2019-05-26T01:49:36.231Z,35.73
2019-05-26T01:52:02.470Z,31.57
2019-05-26T01:54:28.670Z,33.40
2019-05-26T01:56:54.934Z,32.97
2019-05-26T01:59:21.070Z,33.10
2019-05-26T02:01:47.234Z,33.63
2019-05-26T02:04:13.430Z,28.90
2019-05-26T02:06:39.862Z,33.80
2019-05-26T02:09:07.135Z,33.03
2019-05-26T02:11:33.384Z,32.57
2019-05-26T02:13:59.719Z,34.27
2019-05-26T02:16:25.980Z,37.13
2019-05-26T02:18:52.323Z,35.83
2019-05-26T02:21:18.504Z,33.23
2019-05-26T02:23:44.674Z,36.17
2019-05-26T02:26:10.908Z,37.67
2019-05-26T02:28:37.074Z,39.37
2019-05-26T02:31:03.255Z,41.30
2019-05-26T02:33:29.452Z,36.37
2019-05-26T02:35:55.632Z,34.60
2019-05-26T02:38:26.119Z,37.90
2019-05-26T02:40:50.011Z,40.13
2019-05-26T02:43:16.293Z,38.17
2019-05-26T02:45:42.465Z,39.17
2019-05-26T02:48:09.411Z,41.17
2019-05-26T02:50:36.051Z,43.33
2019-05-26T02:53:02.269Z,39.53
2019-05-26T02:55:28.619Z,39.43
2019-05-26T02:57:54.803Z,43.43
2019-05-26T03:00:24.797Z,41.13
2019-05-26T03:02:51.084Z,42.10
2019-05-26T03:05:17.275Z,46.63
2019-05-26T03:07:43.449Z,41.20
2019-05-26T03:10:11.478Z,40.33
2019-05-26T03:12:40.157Z,41.20
2019-05-26T03:15:06.837Z,41.07
2019-05-26T03:17:33.235Z,44.73
2019-05-26T03:19:59.708Z,46.07
2019-05-26T03:22:26.882Z,43.60
2019-05-26T03:24:53.594Z,42.77
2019-05-26T03:27:20.868Z,39.50
2019-05-26T03:29:47.038Z,36.87
2019-05-26T03:32:13.268Z,38.57
2019-05-26T03:34:39.457Z,37.83
2019-05-26T03:37:05.615Z,46.93
2019-05-26T03:39:44.357Z,39.57
2019-05-26T03:42:00.037Z,43.53
2019-05-26T03:44:26.197Z,39.10
2019-05-26T03:46:52.399Z,38.07
2019-05-26T03:49:19.254Z,38.90
2019-05-26T03:51:45.428Z,44.37
2019-05-26T03:54:11.641Z,37.37
2019-05-26T03:56:37.827Z,40.80
2019-05-26T03:59:04.097Z,40.03
2019-05-26T04:01:30.292Z,44.93
2019-05-26T04:03:56.466Z,41.47
2019-05-26T04:06:22.653Z,39.93
2019-05-26T04:08:48.944Z,39.80
2019-05-26T04:11:15.120Z,42.73
2019-05-26T04:13:41.299Z,45.43
2019-05-26T04:16:07.505Z,45.40
2019-05-26T04:18:33.680Z,43.37
2019-05-26T04:21:00.048Z,42.47
2019-05-26T04:23:26.438Z,43.57
2019-05-26T04:25:52.686Z,43.17
2019-05-26T04:28:18.846Z,38.63
2019-05-26T04:30:45.056Z,46.97
2019-05-26T04:33:11.214Z,41.63
2019-05-26T04:35:37.398Z,45.67
2019-05-26T04:38:03.604Z,42.27
2019-05-26T04:40:29.775Z,44.13
2019-05-26T04:42:55.960Z,44.67
2019-05-26T04:45:22.155Z,50.43
2019-05-26T04:47:48.395Z,50.00
2019-05-26T04:50:15.300Z,43.17
2019-05-26T04:52:41.564Z,47.00
2019-05-26T04:55:07.947Z,47.53
2019-05-26T04:57:34.111Z,41.57
2019-05-26T05:00:00.319Z,43.20
2019-05-26T05:02:26.506Z,47.40
2019-05-26T05:04:52.673Z,43.57
2019-05-26T05:07:18.874Z,40.83
2019-05-26T05:09:45.164Z,42.93
2019-05-26T05:12:11.330Z,45.23
2019-05-26T05:14:37.533Z,41.83
2019-05-26T05:17:03.708Z,40.93
2019-05-26T05:19:29.879Z,40.50
2019-05-26T05:21:56.233Z,45.03
2019-05-26T05:24:22.484Z,42.67
2019-05-26T05:26:48.867Z,38.90
2019-05-26T05:29:16.075Z,46.47
2019-05-26T05:31:42.250Z,46.83
2019-05-26T05:34:08.434Z,42.90
2019-05-26T05:36:34.745Z,44.43
2019-05-26T05:39:00.927Z,46.57
2019-05-26T05:41:27.098Z,42.73
2019-05-26T05:43:53.590Z,42.83
2019-05-26T05:46:19.766Z,48.97
2019-05-26T05:48:45.940Z,43.07
2019-05-26T05:51:12.688Z,50.90
2019-05-26T05:53:38.865Z,44.83
2019-05-26T05:56:05.053Z,51.23
2019-05-26T05:58:31.242Z,42.87
2019-05-26T06:00:57.419Z,50.70
2019-05-26T06:03:23.824Z,41.10
2019-05-26T06:05:50.167Z,47.80
2019-05-26T06:08:16.334Z,44.53
2019-05-26T06:10:42.503Z,46.70
2019-05-26T06:13:08.703Z,44.43
2019-05-26T06:15:34.883Z,41.97
2019-05-26T06:18:01.059Z,48.67
2019-05-26T06:20:27.414Z,53.57
2019-05-26T06:22:53.587Z,35.80
2019-05-26T06:25:19.769Z,43.03
2019-05-26T06:27:45.951Z,46.10
2019-05-26T06:30:12.227Z,37.27
2019-05-26T06:32:38.398Z,42.23
2019-05-26T06:35:04.985Z,38.37
2019-05-26T06:37:31.182Z,41.03
2019-05-26T06:39:57.362Z,40.73
2019-05-26T06:42:23.570Z,40.30
2019-05-26T06:44:53.385Z,38.47
2019-05-26T06:47:17.739Z,35.90
2019-05-26T06:49:44.099Z,35.07
2019-05-26T06:52:10.748Z,32.67
2019-05-26T06:54:36.979Z,38.17
2019-05-26T06:57:03.186Z,29.73
2019-05-26T06:59:29.354Z,27.73
2019-05-26T07:01:55.640Z,34.07
2019-05-26T07:04:21.830Z,31.03
2019-05-26T07:06:47.998Z,27.90
2019-05-26T07:09:14.174Z,27.07
2019-05-26T07:11:53.831Z,24.50
2019-05-26T07:14:08.362Z,23.70
2019-05-26T07:16:38.425Z,26.77
2019-05-26T07:19:03.034Z,30.77
2019-05-26T07:21:29.213Z,24.67
2019-05-26T07:23:55.383Z,25.10
2019-05-26T07:26:21.577Z,26.43
2019-05-26T07:28:47.750Z,17.97
2019-05-26T07:31:13.926Z,19.63
2019-05-26T07:33:40.133Z,19.03
2019-05-26T07:36:06.323Z,24.70
2019-05-26T07:38:32.498Z,21.23
2019-05-26T07:40:59.291Z,22.70
2019-05-26T07:43:28.020Z,17.57
2019-05-26T07:45:53.448Z,21.80
2019-05-26T07:48:19.642Z,17.37
2019-05-26T07:50:45.819Z,18.27
2019-05-26T07:53:12.597Z,17.90
2019-05-26T07:55:38.786Z,22.53
2019-05-26T07:58:05.026Z,25.00
2019-05-26T08:00:31.152Z,23.50
2019-05-26T08:02:57.554Z,21.43
2019-05-26T08:05:23.738Z,20.90
2019-05-26T08:07:49.919Z,20.33
2019-05-26T08:10:16.386Z,18.50
2019-05-26T08:12:42.555Z,19.67
2019-05-26T08:15:08.731Z,19.60
2019-05-26T08:17:34.934Z,23.10
2019-05-26T08:20:02.022Z,17.13
2019-05-26T08:22:28.214Z,12.93
2019-05-26T08:24:54.404Z,17.63
2019-05-26T08:27:20.686Z,12.07
2019-05-26T08:29:46.914Z,18.83
2019-05-26T08:32:15.057Z,11.73
2019-05-26T08:34:41.127Z,14.27
2019-05-26T08:37:07.304Z,12.83
2019-05-26T08:39:33.505Z,8.07
2019-05-26T08:41:59.674Z,8.13
2019-05-26T08:44:25.967Z,5.03
2019-05-26T08:46:52.291Z,8.13
2019-05-26T08:49:19.010Z,11.83
2019-05-26T08:51:45.523Z,7.40
2019-05-26T08:54:12.225Z,8.50
2019-05-26T08:56:38.398Z,4.53
2019-05-26T08:59:04.619Z,3.67
2019-05-26T09:01:30.771Z,2.23
2019-05-26T09:03:56.952Z,7.97
2019-05-26T09:06:23.200Z,4.53
2019-05-26T09:08:49.426Z,4.13
2019-05-26T09:11:15.603Z,6.17
2019-05-26T09:13:41.783Z,3.30
2019-05-26T09:16:08.124Z,4.37
2019-05-26T09:18:34.362Z,6.97
2019-05-26T09:21:00.665Z,5.80
2019-05-26T09:23:27.019Z,6.00
2019-05-26T09:25:53.194Z,5.67
2019-05-26T09:28:19.375Z,3.50
2019-05-26T09:30:45.691Z,10.87
2019-05-26T09:33:11.965Z,11.67
2019-05-26T09:35:38.138Z,7.07
2019-05-26T09:38:04.546Z,9.77
2019-05-26T09:40:30.726Z,10.37
2019-05-26T09:42:56.899Z,8.73
2019-05-26T09:45:23.233Z,7.07
2019-05-26T09:47:49.413Z,9.80
2019-05-26T09:50:15.980Z,6.77
2019-05-26T09:52:42.352Z,6.87
2019-05-26T09:55:09.314Z,8.13
2019-05-26T09:57:35.687Z,7.87
2019-05-26T10:00:05.492Z,9.30
2019-05-26T10:02:31.661Z,8.93
2019-05-26T10:04:57.832Z,5.73
2019-05-26T10:07:24.046Z,10.37
2019-05-26T10:09:50.216Z,8.30
2019-05-26T10:12:16.495Z,5.10
2019-05-26T10:14:43.010Z,9.40
2019-05-26T10:17:09.289Z,5.80
2019-05-26T10:19:35.467Z,5.27
2019-05-26T10:22:01.666Z,5.43
2019-05-26T10:24:27.920Z,4.77
2019-05-26T10:26:54.223Z,5.13
2019-05-26T10:29:20.455Z,5.50
2019-05-26T10:31:46.631Z,5.77
2019-05-26T10:34:13.813Z,6.37
2019-05-26T10:36:40.333Z,11.40
2019-05-26T10:39:07.502Z,4.93
2019-05-26T10:41:33.687Z,5.60
2019-05-26T10:43:59.881Z,6.03
2019-05-26T10:46:26.058Z,8.70
2019-05-26T10:48:52.230Z,5.57
2019-05-26T10:51:18.430Z,5.67
2019-05-26T10:53:44.604Z,4.97
2019-05-26T10:56:12.214Z,4.90
2019-05-26T10:58:38.435Z,4.00
2019-05-26T11:01:04.921Z,5.60
2019-05-26T11:03:31.091Z,4.67
2019-05-26T11:05:57.594Z,5.47
2019-05-26T11:08:23.767Z,7.10
2019-05-26T11:10:49.954Z,6.10
2019-05-26T11:13:16.179Z,7.30
2019-05-26T11:15:44.340Z,12.53
2019-05-26T11:18:10.538Z,5.13
2019-05-26T11:20:36.918Z,9.67
2019-05-26T11:23:03.288Z,6.60
2019-05-26T11:25:29.762Z,9.80
2019-05-26T11:27:55.989Z,3.67
2019-05-26T11:30:22.147Z,8.03
2019-05-26T11:32:48.617Z,6.80
2019-05-26T11:35:14.986Z,6.23
2019-05-26T11:37:41.168Z,4.03
2019-05-26T11:40:07.545Z,4.67
2019-05-26T11:42:34.074Z,6.00
2019-05-26T11:45:00.242Z,5.57
2019-05-26T11:47:26.418Z,7.73
2019-05-26T11:49:52.632Z,6.80
2019-05-26T11:52:20.356Z,7.80
2019-05-26T11:54:46.687Z,11.37
2019-05-26T11:57:13.340Z,10.03
2019-05-26T11:59:39.526Z,12.53
2019-05-26T12:02:05.787Z,10.70
2019-05-26T12:04:31.993Z,17.03
2019-05-26T12:06:58.169Z,8.50
2019-05-26T12:09:24.454Z,12.47
2019-05-26T12:11:50.671Z,10.20
2019-05-26T12:14:16.836Z,15.53
2019-05-26T12:16:43.010Z,15.50
2019-05-26T12:19:09.459Z,15.10
2019-05-26T12:21:35.626Z,17.43
2019-05-26T12:24:01.807Z,18.73
2019-05-26T12:26:28.211Z,20.17
2019-05-26T12:28:54.391Z,12.90
2019-05-26T12:31:20.567Z,13.67
2019-05-26T12:33:46.770Z,12.57
2019-05-26T12:36:12.943Z,16.50
2019-05-26T12:38:41.027Z,11.43
2019-05-26T12:41:07.558Z,16.87
2019-05-26T12:43:33.843Z,16.87
2019-05-26T12:46:00.015Z,14.23
2019-05-26T12:48:26.324Z,14.70
2019-05-26T12:50:52.591Z,8.73
2019-05-26T12:53:18.906Z,10.87
2019-05-26T12:55:45.105Z,7.17
2019-05-26T12:58:11.580Z,12.53
2019-05-26T13:00:48.106Z,13.77
2019-05-26T13:03:06.051Z,6.77
2019-05-26T13:05:32.164Z,10.60
2019-05-26T13:07:58.402Z,13.00
2019-05-26T13:10:24.567Z,15.07
2019-05-26T13:12:50.949Z,10.23
2019-05-26T13:15:17.425Z,18.93
2019-05-26T13:17:43.634Z,8.97
2019-05-26T13:20:11.812Z,11.60
2019-05-26T13:22:38.545Z,14.30
2019-05-26T13:25:06.102Z,11.87
2019-05-26T13:27:32.346Z,11.80
2019-05-26T13:29:58.527Z,15.47
2019-05-26T13:32:24.990Z,15.00
2019-05-26T13:34:51.167Z,12.60
2019-05-26T13:37:17.354Z,15.23
2019-05-26T13:39:43.555Z,11.77
2019-05-26T13:42:09.792Z,15.30
2019-05-26T13:44:35.906Z,12.43
2019-05-26T13:47:02.114Z,24.23
2019-05-26T13:49:28.294Z,14.57
2019-05-26T13:51:54.474Z,7.70
2019-05-26T13:54:20.670Z,11.97
2019-05-26T13:56:46.849Z,12.10
2019-05-26T13:59:13.922Z,14.20
2019-05-26T14:01:40.329Z,20.80
2019-05-26T14:04:06.707Z,16.73
2019-05-26T14:06:32.979Z,9.83
2019-05-26T14:09:02.052Z,7.70
2019-05-26T14:11:27.169Z,3.67
2019-05-26T14:13:53.347Z,3.13
2019-05-26T14:16:20.044Z,3.13
2019-05-26T14:18:46.326Z,5.87
2019-05-26T14:21:12.499Z,6.20
2019-05-26T14:23:38.843Z,3.53
2019-05-26T14:26:05.127Z,4.77
2019-05-26T14:28:31.312Z,3.30
2019-05-26T14:30:57.510Z,11.50
2019-05-26T14:33:23.686Z,14.17
2019-05-26T14:35:49.861Z,8.83
2019-05-26T14:38:16.066Z,10.23
2019-05-26T14:40:42.755Z,1.63
2019-05-26T14:43:08.922Z,3.50
2019-05-26T14:45:35.335Z,7.80
2019-05-26T14:48:01.510Z,7.50
2019-05-26T14:50:27.685Z,5.60
2019-05-26T14:52:54.214Z,2.67
2019-05-26T14:55:20.405Z,3.83
2019-05-26T14:57:46.673Z,4.93
2019-05-26T15:00:14.467Z,4.17
2019-05-26T15:02:40.741Z,6.20
2019-05-26T15:05:07.114Z,8.87
2019-05-26T15:07:33.748Z,12.57
2019-05-26T15:09:59.922Z,6.63
2019-05-26T15:12:26.094Z,11.03
2019-05-26T15:14:52.402Z,13.33
2019-05-26T15:17:18.589Z,13.93
2019-05-26T15:19:44.754Z,5.97
2019-05-26T15:22:10.959Z,3.03
2019-05-26T15:24:37.222Z,5.23
2019-05-26T15:27:03.401Z,5.30
2019-05-26T15:29:29.598Z,4.80
2019-05-26T15:31:55.777Z,6.87
2019-05-26T15:34:21.946Z,3.47
2019-05-26T15:36:48.244Z,1.57
2019-05-26T15:39:14.794Z,3.60
2019-05-26T15:41:40.963Z,3.77
2019-05-26T15:44:07.164Z,2.43
2019-05-26T15:46:33.365Z,8.63
2019-05-26T15:48:59.731Z,2.63
2019-05-26T15:51:25.930Z,3.27
2019-05-26T15:53:52.098Z,2.83
2019-05-26T15:56:18.271Z,2.90
2019-05-26T15:58:44.609Z,3.67
2019-05-26T16:01:11.370Z,1.67
2019-05-26T16:03:37.671Z,4.07
2019-05-26T16:06:04.108Z,6.77
2019-05-26T16:08:30.286Z,1.97
2019-05-26T16:10:56.557Z,3.03
2019-05-26T16:13:22.765Z,3.33
2019-05-26T16:15:48.939Z,4.03
2019-05-26T16:18:15.107Z,3.10
2019-05-26T16:20:41.303Z,3.17
2019-05-26T16:23:08.898Z,6.67
2019-05-26T16:25:35.371Z,5.47
2019-05-26T16:28:01.563Z,4.83
2019-05-26T16:30:27.854Z,4.43
2019-05-26T16:32:54.038Z,4.57
2019-05-26T16:35:20.318Z,4.20
2019-05-26T16:37:46.500Z,5.37
2019-05-26T16:40:12.874Z,4.30
2019-05-26T16:42:39.184Z,6.47
2019-05-26T16:45:05.592Z,2.80
2019-05-26T16:47:31.797Z,5.50
2019-05-26T16:49:58.011Z,5.00
2019-05-26T16:52:24.182Z,2.87
2019-05-26T16:54:50.378Z,5.27
2019-05-26T16:57:16.579Z,4.00
2019-05-26T16:59:42.874Z,3.60
2019-05-26T17:02:09.639Z,3.90
2019-05-26T17:04:35.936Z,6.90
2019-05-26T17:07:02.114Z,5.13
2019-05-26T17:09:28.282Z,4.30
2019-05-26T17:11:54.491Z,5.03
2019-05-26T17:14:20.662Z,3.00
2019-05-26T17:16:47.153Z,5.20
2019-05-26T17:19:13.401Z,4.90
2019-05-26T17:21:39.536Z,6.23
2019-05-26T17:24:05.722Z,4.43
2019-05-26T17:26:31.918Z,4.80
2019-05-26T17:28:58.094Z,6.17
2019-05-26T17:31:24.372Z,7.67
2019-05-26T17:33:50.674Z,6.03
2019-05-26T17:36:16.892Z,4.97
2019-05-26T17:38:43.038Z,9.60
2019-05-26T17:41:09.236Z,10.17
2019-05-26T17:43:35.407Z,7.43
2019-05-26T17:46:01.580Z,4.43
2019-05-26T17:48:27.844Z,5.20
2019-05-26T17:50:54.030Z,7.37
2019-05-26T17:53:20.198Z,9.30
2019-05-26T17:55:46.517Z,8.80
2019-05-26T17:58:12.704Z,11.97
2019-05-26T18:00:38.984Z,14.33
2019-05-26T18:03:06.752Z,7.63
2019-05-26T18:05:33.350Z,9.77
2019-05-26T18:07:59.530Z,11.57
2019-05-26T18:10:26.131Z,12.33
2019-05-26T18:12:52.407Z,8.67
2019-05-26T18:15:18.798Z,8.80
2019-05-26T18:17:47.470Z,10.13
2019-05-26T18:20:13.311Z,8.37
2019-05-26T18:22:39.484Z,12.77
2019-05-26T18:25:06.493Z,12.90
2019-05-26T18:27:32.666Z,10.30
2019-05-26T18:29:58.850Z,9.10
2019-05-26T18:32:25.058Z,12.87
2019-05-26T18:34:51.227Z,10.10
2019-05-26T18:37:17.709Z,12.60
2019-05-26T18:39:43.922Z,18.37
2019-05-26T18:42:10.102Z,10.03
2019-05-26T18:44:36.378Z,7.63
2019-05-26T18:47:03.246Z,8.17
2019-05-26T18:49:29.419Z,12.07
2019-05-26T18:51:55.595Z,8.70
2019-05-26T18:54:21.798Z,10.20
2019-05-26T18:56:47.970Z,10.00
2019-05-26T18:59:14.146Z,10.97
2019-05-26T19:01:40.545Z,10.80
2019-05-26T19:04:07.064Z,8.63
2019-05-26T19:06:33.237Z,7.03
2019-05-26T19:08:59.607Z,6.03
2019-05-26T19:11:25.982Z,6.73
2019-05-26T19:13:52.170Z,6.90
2019-05-26T19:16:18.532Z,6.30
2019-05-26T19:18:44.686Z,4.27
2019-05-26T19:21:10.858Z,4.30
2019-05-26T19:23:37.170Z,3.53
2019-05-26T19:26:03.403Z,2.73
2019-05-26T19:28:29.517Z,3.73
2019-05-26T19:30:55.820Z,4.03
2019-05-26T19:33:21.986Z,3.70
2019-05-26T19:35:48.266Z,3.40
2019-05-26T19:38:14.641Z,4.10
2019-05-26T19:40:40.783Z,2.73
2019-05-26T19:43:07.092Z,3.50
2019-05-26T19:45:33.448Z,4.63
2019-05-26T19:47:59.627Z,5.70
2019-05-26T19:50:25.806Z,4.07
2019-05-26T19:52:52.008Z,9.40
2019-05-26T19:55:18.299Z,5.73
2019-05-26T19:57:44.451Z,7.83
2019-05-26T20:00:13.062Z,7.93
2019-05-26T20:02:39.434Z,7.27
2019-05-26T20:05:07.137Z,9.67
2019-05-26T20:07:33.684Z,9.50
2019-05-26T20:09:59.901Z,16.30
2019-05-26T20:12:26.042Z,12.97
2019-05-26T20:14:52.238Z,13.90
2019-05-26T20:17:18.415Z,14.17
2019-05-26T20:19:44.593Z,13.83
2019-05-26T20:22:10.818Z,16.90
2019-05-26T20:24:37.166Z,14.03
2019-05-26T20:27:03.484Z,18.67
2019-05-26T20:29:29.774Z,17.97
2019-05-26T20:31:55.946Z,16.10
2019-05-26T20:34:22.128Z,21.00
2019-05-26T20:36:48.528Z,21.70
2019-05-26T20:39:14.693Z,22.20
2019-05-26T20:41:40.884Z,23.27
2019-05-26T20:44:07.088Z,21.53
2019-05-26T20:46:33.260Z,24.57
2019-05-26T20:48:59.430Z,23.17
2019-05-26T20:51:25.641Z,19.40
2019-05-26T20:53:51.815Z,23.10
2019-05-26T20:56:18.061Z,19.43
2019-05-26T20:58:44.248Z,20.90
2019-05-26T21:01:10.426Z,23.87
2019-05-26T21:03:36.603Z,21.53
2019-05-26T21:06:04.599Z,20.73
2019-05-26T21:08:30.865Z,23.77
2019-05-26T21:10:57.043Z,27.77
2019-05-26T21:13:23.445Z,27.10
2019-05-26T21:15:49.847Z,24.67
2019-05-26T21:18:16.027Z,31.40
2019-05-26T21:20:43.360Z,31.43
2019-05-26T21:23:09.559Z,25.17
2019-05-26T21:25:35.754Z,23.90
2019-05-26T21:28:03.850Z,21.70
2019-05-26T21:30:30.029Z,18.37
2019-05-26T21:32:56.210Z,23.37
2019-05-26T21:35:22.410Z,22.47
2019-05-26T21:37:48.631Z,25.00
2019-05-26T21:40:14.818Z,25.57
2019-05-26T21:42:41.018Z,24.20
2019-05-26T21:45:07.605Z,29.87
2019-05-26T21:47:33.834Z,29.97
2019-05-26T21:50:00.178Z,32.50
2019-05-26T21:52:26.342Z,33.43
2019-05-26T21:54:52.823Z,30.47
2019-05-26T21:57:19.027Z,28.83
2019-05-26T21:59:45.299Z,28.57
2019-05-26T22:02:11.578Z,28.77
2019-05-26T22:04:37.838Z,31.40
2019-05-26T22:07:05.402Z,39.53
2019-05-26T22:09:32.079Z,36.20
2019-05-26T22:11:58.466Z,39.43
2019-05-26T22:14:24.635Z,38.80
2019-05-26T22:16:50.817Z,43.60
2019-05-26T22:19:17.127Z,47.63
2019-05-26T22:21:43.401Z,49.60
2019-05-26T22:24:09.711Z,44.87
2019-05-26T22:26:35.894Z,54.67
2019-05-26T22:29:02.077Z,60.23
2019-05-26T22:31:28.240Z,50.93
2019-05-26T22:33:54.435Z,42.33
2019-05-26T22:36:20.764Z,39.17
2019-05-26T22:38:47.050Z,38.43
2019-05-26T22:41:13.254Z,31.27
2019-05-26T22:43:39.430Z,29.20
2019-05-26T22:46:05.610Z,32.77
2019-05-26T22:48:32.316Z,28.13
2019-05-26T22:50:58.578Z,35.60
2019-05-26T22:53:24.865Z,21.30
2019-05-26T22:55:51.071Z,24.93
2019-05-26T22:58:17.255Z,32.97
2019-05-26T23:00:43.423Z,29.83
2019-05-26T23:03:09.722Z,22.10
2019-05-26T23:05:35.910Z,20.40
2019-05-26T23:08:02.752Z,21.03
2019-05-26T23:10:28.946Z,30.60
2019-05-26T23:12:55.132Z,23.67
2019-05-26T23:15:21.295Z,29.37
2019-05-26T23:17:47.730Z,25.07
2019-05-26T23:20:13.930Z,28.23
2019-05-26T23:22:40.112Z,25.40
2019-05-26T23:25:06.407Z,32.60
2019-05-26T23:27:32.578Z,32.27
2019-05-26T23:29:58.758Z,35.37
2019-05-26T23:32:25.338Z,33.40
2019-05-26T23:34:51.526Z,25.43
2019-05-26T23:37:17.699Z,31.37
2019-05-26T23:39:44.003Z,31.07
2019-05-26T23:42:10.179Z,30.63
2019-05-26T23:44:36.346Z,29.83
2019-05-26T23:47:02.547Z,35.97
2019-05-26T23:49:28.733Z,36.30
2019-05-26T23:51:55.040Z,28.50
2019-05-26T23:54:21.381Z,38.83
2019-05-26T23:56:47.555Z,28.20
2019-05-26T23:59:13.847Z,34.70
